Time;durP1;ratioP1;P1;durP2;ratioP2;P2;SDS_P1;SDS_P2;PMS_P1;PMS_P2;Temp;Humidity;BMP_temperature;BMP_pressure;BME280_temperature;BME280_humidity;BME280_pressure;Samples;Min_cycle;Max_cycle;Signal;HPM_P1;HPM_P2
2022/06/24 00:02:10;;;;;;;6.95;2.47;;;;;;;24.93;50.18;100270.13;5076716;28;20696;-69
2022/06/24 00:04:38;;;;;;;11.30;2.40;;;;;;;24.98;50.10;100268.88;5075512;28;20055;-70
2022/06/24 00:07:14;;;;;;;2.88;1.88;;;;;;;24.93;50.32;100270.13;5060155;28;20048;-70
2022/06/24 00:09:42;;;;;;;5.43;2.00;;;;;;;24.75;50.96;100283.66;5052406;28;20076;-70
2022/06/24 00:12:11;;;;;;;5.63;2.17;;;;;;;24.76;51.01;100282.41;5082622;28;20049;-69
2022/06/24 00:14:40;;;;;;;4.97;1.80;;;;;;;24.71;51.24;100285.69;5074701;28;20059;-69
2022/06/24 00:17:14;;;;;;;6.00;2.38;;;;;;;24.84;51.72;100285.97;5073736;28;20044;-71
2022/06/24 00:20:15;;;;;;;6.97;2.35;;;;;;;24.75;51.70;100282.84;5071004;28;20044;-70
2022/06/24 00:22:45;;;;;;;7.32;2.42;;;;;;;24.52;52.68;100278.63;5072849;28;20086;-70
2022/06/24 00:25:23;;;;;;;5.53;2.30;;;;;;;24.64;52.75;100280.09;5076145;28;20051;-69
2022/06/24 00:28:04;;;;;;;5.85;2.10;;;;;;;24.48;53.32;100277.03;5074330;28;20048;-70
2022/06/24 00:30:36;;;;;;;6.22;2.10;;;;;;;24.65;53.26;100270.44;5058174;28;20045;-70
2022/06/24 00:33:08;;;;;;;8.38;2.25;;;;;;;24.65;52.95;100273.28;5058179;28;20060;-70
2022/06/24 00:35:37;;;;;;;4.35;2.20;;;;;;;24.51;53.66;100270.59;5064905;28;20053;-69
2022/06/24 00:38:23;;;;;;;4.55;2.20;;;;;;;24.77;52.64;100280.41;5076187;28;20044;-69
2022/06/24 00:40:56;;;;;;;6.50;2.30;;;;;;;24.63;53.19;100275.69;5075690;28;20676;-70
2022/06/24 00:43:30;;;;;;;6.53;2.15;;;;;;;24.64;53.27;100280.09;5076359;28;20057;-71
2022/06/24 00:46:17;;;;;;;6.18;2.35;;;;;;;24.60;53.46;100278.56;5038203;28;20065;-69
2022/06/24 00:48:52;;;;;;;7.95;2.28;;;;;;;24.58;53.57;100283.81;5069188;28;20075;-70
2022/06/24 00:51:41;;;;;;;6.40;2.03;;;;;;;24.49;53.86;100279.47;5062174;28;20067;-71
2022/06/24 00:54:12;;;;;;;4.63;2.08;;;;;;;24.25;54.23;100280.50;5069469;28;20065;-69
2022/06/24 00:56:40;;;;;;;4.88;1.98;;;;;;;24.01;54.85;100280.69;5073112;28;20048;-69
2022/06/24 00:59:12;;;;;;;5.90;2.00;;;;;;;24.12;55.13;100267.34;5075155;28;20230;-68
2022/06/24 01:01:41;;;;;;;5.65;1.80;;;;;;;24.09;55.46;100268.19;5068245;28;20049;-71
2022/06/24 01:04:10;;;;;;;8.00;1.90;;;;;;;24.14;55.15;100270.56;5057671;28;20044;-69
2022/06/24 01:06:41;;;;;;;4.85;1.70;;;;;;;24.02;55.58;100277.50;5056453;28;20067;-70
2022/06/24 01:09:09;;;;;;;5.53;1.92;;;;;;;24.06;55.36;100281.06;5056239;28;20072;-69
2022/06/24 01:11:37;;;;;;;5.32;2.05;;;;;;;24.15;55.30;100270.13;5085140;28;20053;-70
2022/06/24 01:14:05;;;;;;;4.22;1.80;;;;;;;24.24;55.34;100272.47;5055625;28;20064;-70
2022/06/24 01:16:34;;;;;;;7.40;2.05;;;;;;;23.89;55.79;100272.72;5073528;28;20044;-69
2022/06/24 01:19:07;;;;;;;3.78;1.65;;;;;;;24.01;55.67;100267.44;5070830;28;20435;-69
2022/06/24 01:21:39;;;;;;;5.53;1.90;;;;;;;24.17;55.56;100267.72;5074218;28;20464;-70
2022/06/24 01:24:15;;;;;;;9.55;1.90;;;;;;;24.05;55.07;100268.22;5074665;28;20067;-70
2022/06/24 01:26:45;;;;;;;8.70;2.10;;;;;;;24.14;55.49;100271.38;5075598;28;20055;-70
2022/06/24 01:29:19;;;;;;;9.50;2.13;;;;;;;24.30;54.82;100274.41;5074378;28;20782;-70
2022/06/24 01:31:48;;;;;;;5.03;1.90;;;;;;;24.41;54.87;100282.75;5069885;28;20044;-70
2022/06/24 01:34:17;;;;;;;5.32;1.77;;;;;;;24.43;54.87;100285.94;5056888;28;20075;-70
2022/06/24 01:36:44;;;;;;;7.30;1.77;;;;;;;24.24;55.48;100292.16;5056735;28;20059;-69
2022/06/24 01:39:12;;;;;;;5.10;1.75;;;;;;;24.12;55.38;100299.13;5061584;28;20060;-69
2022/06/24 01:41:40;;;;;;;4.90;2.15;;;;;;;24.23;55.85;100313.09;5075237;28;20063;-68
2022/06/24 01:44:07;;;;;;;4.50;1.80;;;;;;;24.24;56.13;100317.50;5047784;28;20468;-70
2022/06/24 01:46:35;;;;;;;5.22;2.00;;;;;;;24.24;57.10;100323.94;5055620;28;20044;-69
2022/06/24 01:49:03;;;;;;;8.68;2.13;;;;;;;24.09;58.17;100322.47;5072449;28;20055;-69
2022/06/24 01:51:31;;;;;;;4.57;1.98;;;;;;;24.02;58.95;100316.91;5034343;28;20053;-69
2022/06/24 01:53:59;;;;;;;5.78;2.05;;;;;;;23.94;59.77;100312.47;5061571;28;20049;-69
2022/06/24 01:56:26;;;;;;;7.05;2.00;;;;;;;23.77;60.19;100304.16;5034344;28;20057;-69
2022/06/24 01:58:54;;;;;;;4.75;1.70;;;;;;;23.66;61.02;100298.63;5034639;28;20096;-69
2022/06/24 02:01:21;;;;;;;5.80;2.17;;;;;;;23.28;62.13;100296.84;5023087;28;20053;-69
2022/06/24 02:03:49;;;;;;;9.10;2.63;;;;;;;23.38;61.96;100293.97;5028863;28;20050;-70
2022/06/24 02:06:17;;;;;;;6.38;2.17;;;;;;;23.44;61.61;100302.78;5042428;28;20064;-70
2022/06/24 02:08:45;;;;;;;4.53;2.00;;;;;;;23.61;61.18;100295.44;5021136;28;20515;-69
2022/06/24 02:14:02;;;;;;;5.35;2.00;;;;;;;23.38;61.70;100284.72;5032400;28;20425;-70
2022/06/24 02:16:31;;;;;;;4.93;2.00;;;;;;;23.30;62.11;100283.97;5031946;28;20053;-71
2022/06/24 02:18:59;;;;;;;3.15;2.05;;;;;;;23.37;61.90;100274.72;5016916;28;20056;-71
2022/06/24 02:21:27;;;;;;;5.00;2.13;;;;;;;23.38;61.88;100293.16;5033980;28;20081;-70
2022/06/24 02:23:54;;;;;;;5.38;1.80;;;;;;;22.92;63.16;100303.78;5034117;28;20049;-68
2022/06/24 02:26:23;;;;;;;8.65;2.30;;;;;;;23.08;62.93;100304.91;5030775;28;20498;-69
2022/06/24 02:28:50;;;;;;;9.68;2.40;;;;;;;23.14;63.21;100288.44;5034171;28;20057;-69
2022/06/24 02:31:17;;;;;;;8.73;2.65;;;;;;;22.79;65.00;100283.75;5034345;28;20057;-70
2022/06/24 02:33:46;;;;;;;10.18;2.88;;;;;;;22.75;65.67;100274.53;5020196;28;20053;-69
2022/06/24 02:36:14;;;;;;;4.60;2.28;;;;;;;22.81;64.99;100275.72;5065630;28;20527;-70
2022/06/24 02:38:42;;;;;;;5.25;2.03;;;;;;;22.40;64.27;100273.81;5041570;28;20053;-68
2022/06/24 02:41:12;;;;;;;;;;;;;;;21.88;67.28;100270.63;5028961;28;20061;-69
2022/06/24 02:43:39;;;;;;;6.75;2.28;;;;;;;22.29;66.10;100262.59;5034119;28;20384;-70
2022/06/24 02:46:13;;;;;;;3.42;1.90;;;;;;;22.15;66.59;100254.19;5033839;28;20045;-69
2022/06/24 02:48:42;;;;;;;3.47;1.80;;;;;;;22.28;66.12;100256.19;5034156;28;20064;-70
2022/06/24 02:51:11;;;;;;;6.85;1.80;;;;;;;22.64;65.24;100264.56;5062761;28;20057;-70
2022/06/24 02:53:39;;;;;;;4.47;2.00;;;;;;;22.74;64.76;100264.53;5070148;28;20041;-69
2022/06/24 02:56:09;;;;;;;4.72;2.38;;;;;;;22.99;64.66;100272.84;5073606;28;20041;-71
2022/06/24 02:58:37;;;;;;;6.45;2.10;;;;;;;22.63;65.53;100272.16;5073355;28;20052;-70
2022/06/24 03:01:05;;;;;;;6.45;2.13;;;;;;;22.61;65.71;100262.56;5073589;28;20060;-70
2022/06/24 03:03:33;;;;;;;5.53;2.38;;;;;;;22.57;65.46;100259.78;5073560;28;20045;-70
2022/06/24 03:06:00;;;;;;;7.22;2.00;;;;;;;22.43;65.60;100261.75;5054897;28;20056;-70
2022/06/24 03:08:28;;;;;;;5.07;2.08;;;;;;;22.20;66.84;100256.59;5055684;28;20052;-70
2022/06/24 03:10:56;;;;;;;4.32;2.13;;;;;;;22.02;68.04;100261.44;5054304;28;20056;-70
2022/06/24 03:13:23;;;;;;;5.03;2.38;;;;;;;22.08;67.84;100268.22;5072582;28;20559;-68
2022/06/24 03:15:51;;;;;;;5.10;2.10;;;;;;;22.19;67.93;100255.00;5066229;28;20059;-69
2022/06/24 03:18:19;;;;;;;5.85;2.53;;;;;;;22.45;66.85;100254.56;5055339;28;20071;-70
2022/06/24 03:20:46;;;;;;;5.65;2.50;;;;;;;22.77;65.63;100246.84;5073252;28;20526;-70
2022/06/24 03:23:15;;;;;;;6.20;2.10;;;;;;;22.78;65.77;100248.47;5069681;28;20052;-70
2022/06/24 03:25:43;;;;;;;4.93;2.13;;;;;;;22.87;65.46;100245.22;5054384;28;20388;-71
2022/06/24 03:28:10;;;;;;;4.60;2.00;;;;;;;22.92;65.48;100251.22;5073392;28;20053;-69
2022/06/24 03:30:38;;;;;;;5.53;2.22;;;;;;;23.04;65.21;100258.38;5072685;28;20059;-70
2022/06/24 03:33:05;;;;;;;5.80;2.17;;;;;;;22.98;65.66;100254.41;5072880;28;20484;-70
2022/06/24 03:35:33;;;;;;;4.75;2.00;;;;;;;23.12;65.45;100254.31;5056343;28;20511;-71
2022/06/24 03:38:00;;;;;;;4.78;2.28;;;;;;;23.12;65.28;100255.13;5077482;28;20063;-70
2022/06/24 03:40:28;;;;;;;7.15;2.00;;;;;;;23.07;65.36;100249.13;5077236;28;20055;-70
2022/06/24 03:42:55;;;;;;;4.63;2.17;;;;;;;22.92;66.02;100262.47;5060823;28;20055;-70
2022/06/24 03:45:22;;;;;;;5.95;1.95;;;;;;;23.22;64.90;100254.25;5073793;28;20408;-69
2022/06/24 03:47:50;;;;;;;5.60;2.25;;;;;;;22.90;65.69;100250.00;5094154;28;20064;-70
2022/06/24 03:50:17;;;;;;;6.95;2.38;;;;;;;22.97;65.55;100244.38;5074939;28;20060;-69
2022/06/24 03:52:45;;;;;;;5.65;2.20;;;;;;;23.01;65.47;100247.97;5076618;28;20041;-69
2022/06/24 03:55:12;;;;;;;4.55;2.45;;;;;;;22.97;65.50;100241.56;5076084;28;20064;-71
2022/06/24 03:57:40;;;;;;;3.28;2.03;;;;;;;22.86;66.11;100236.00;5092804;28;20056;-71
2022/06/24 04:00:08;;;;;;;4.93;2.15;;;;;;;22.86;66.47;100236.00;5058859;28;20063;-70
2022/06/24 04:02:38;;;;;;;5.40;2.70;;;;;;;22.84;66.63;100232.00;5058891;28;20053;-68
2022/06/24 04:05:13;;;;;;;6.00;2.42;;;;;;;22.67;67.58;100244.06;5060328;28;20438;-69
2022/06/24 04:07:42;;;;;;;6.13;2.28;;;;;;;22.73;67.34;100240.47;5076541;28;20173;-70
2022/06/24 04:10:10;;;;;;;3.60;2.28;;;;;;;22.85;67.06;100242.00;5058575;28;20045;-69
2022/06/24 04:12:37;;;;;;;9.60;2.28;;;;;;;22.80;67.49;100239.63;5076224;28;20047;-71
2022/06/24 04:15:14;;;;;;;5.65;2.40;;;;;;;22.85;67.54;100239.22;5076550;28;20419;-70
2022/06/24 04:17:43;;;;;;;4.70;2.53;;;;;;;22.73;67.82;100237.66;5090912;28;20052;-69
2022/06/24 04:20:11;;;;;;;5.35;2.58;;;;;;;22.52;68.34;100236.88;5075465;28;20044;-69
2022/06/24 04:22:39;;;;;;;5.03;2.38;;;;;;;22.70;67.66;100237.69;5040070;28;20060;-70
2022/06/24 04:25:06;;;;;;;3.92;1.92;;;;;;;22.79;67.10;100244.44;5091735;28;20052;-72
2022/06/24 04:27:34;;;;;;;7.03;2.10;;;;;;;22.72;67.38;100252.09;5076107;28;20066;-69
2022/06/24 04:30:04;;;;;;;5.18;2.35;;;;;;;22.67;67.70;100250.50;5041134;28;20052;-69
2022/06/24 04:32:31;;;;;;;9.82;2.60;;;;;;;22.77;67.74;100249.66;5078108;28;20061;-68
2022/06/24 04:34:59;;;;;;;5.63;2.63;;;;;;;22.75;67.69;100245.69;5076176;28;20055;-70
2022/06/24 04:37:27;;;;;;;6.45;2.65;;;;;;;22.77;67.84;100246.06;5038725;28;20052;-70
2022/06/24 04:39:56;;;;;;;5.00;2.42;;;;;;;22.73;67.88;100250.88;5069577;28;20056;-70
2022/06/24 04:42:24;;;;;;;4.10;2.10;;;;;;;22.59;68.48;100253.75;5058784;28;20052;-69
2022/06/24 04:44:51;;;;;;;7.15;2.38;;;;;;;22.68;68.36;100256.94;5051486;28;20048;-69
2022/06/24 04:47:19;;;;;;;5.38;2.45;;;;;;;22.61;68.67;100252.16;5078232;28;20060;-70
2022/06/24 04:49:47;;;;;;;6.30;2.63;;;;;;;22.61;68.49;100254.94;5030458;28;20063;-69
2022/06/24 04:52:15;;;;;;;7.70;2.70;;;;;;;22.56;68.81;100255.34;5062225;28;20048;-69
2022/06/24 04:54:44;;;;;;;7.78;2.95;;;;;;;22.54;68.79;100243.75;5068269;28;20059;-70
2022/06/24 04:57:12;;;;;;;5.95;2.40;;;;;;;22.40;69.01;100252.16;5073332;28;20599;-70
2022/06/24 04:59:40;;;;;;;5.82;2.55;;;;;;;22.46;69.08;100260.94;5075167;28;20056;-69
2022/06/24 05:02:08;;;;;;;5.22;2.50;;;;;;;22.67;68.32;100261.72;5044934;28;20049;-70
2022/06/24 05:04:35;;;;;;;6.20;2.55;;;;;;;22.68;68.50;100266.16;5057430;28;20052;-68
2022/06/24 05:07:04;;;;;;;4.55;2.55;;;;;;;22.77;68.07;100262.91;5074491;28;20455;-70
2022/06/24 05:09:31;;;;;;;6.00;2.92;;;;;;;22.82;67.79;100260.47;5074480;28;20059;-69
2022/06/24 05:11:59;;;;;;;8.45;3.30;;;;;;;22.63;68.20;100255.31;5073428;28;20049;-69
2022/06/24 05:14:27;;;;;;;6.13;2.90;;;;;;;22.58;68.58;100252.94;5061691;28;20045;-69
2022/06/24 05:16:55;;;;;;;7.57;2.58;;;;;;;22.47;69.31;100256.94;5075130;28;20656;-69
2022/06/24 05:19:22;;;;;;;6.65;2.90;;;;;;;22.59;68.66;100254.56;5075379;28;20423;-70
2022/06/24 05:21:50;;;;;;;6.22;2.40;;;;;;;22.69;68.43;100264.13;5057089;28;20060;-71
2022/06/24 05:24:17;;;;;;;7.72;3.53;;;;;;;22.71;68.43;100265.34;5051151;28;20129;-70
2022/06/24 05:26:45;;;;;;;10.05;2.55;;;;;;;22.75;68.23;100259.72;5073887;28;20063;-70
2022/06/24 05:29:13;;;;;;;6.07;2.80;;;;;;;22.48;68.75;100259.34;5041360;28;20075;-69
2022/06/24 05:31:40;;;;;;;4.90;2.25;;;;;;;22.45;69.77;100264.97;5091390;28;20045;-71
2022/06/24 05:34:08;;;;;;;8.32;3.05;;;;;;;22.57;68.90;100265.38;5039913;28;20048;-71
2022/06/24 05:36:35;;;;;;;7.55;2.70;;;;;;;23.01;67.81;100257.19;5054394;28;20052;-70
2022/06/24 05:39:06;;;;;;;10.57;3.10;;;;;;;22.92;68.02;100265.28;5040520;28;20049;-70
2022/06/24 05:41:34;;;;;;;6.45;2.83;;;;;;;23.14;66.71;100263.16;5065698;28;20057;-70
2022/06/24 05:44:01;;;;;;;7.43;2.85;;;;;;;23.37;65.85;100252.22;5084066;28;20052;-70
2022/06/24 05:46:29;;;;;;;9.52;2.70;;;;;;;23.26;65.79;100260.69;5065879;28;20063;-71
2022/06/24 05:48:57;;;;;;;9.18;2.70;;;;;;;23.06;66.81;100259.59;5055281;28;20181;-71
2022/06/24 05:51:24;;;;;;;8.55;4.63;;;;;;;23.35;65.76;100251.81;5067086;28;20064;-71
2022/06/24 05:56:37;;;;;;;6.90;2.70;;;;;;;22.93;68.05;100274.47;5053393;28;20546;-71
2022/06/24 05:59:13;;;;;;;8.88;3.20;;;;;;;22.53;68.82;100272.16;5089122;28;20507;-69
2022/06/24 06:01:41;;;;;;;6.28;3.25;;;;;;;22.67;69.52;100272.97;5072966;28;20048;-70
2022/06/24 06:04:08;;;;;;;7.78;2.92;;;;;;;22.39;68.40;100278.59;5054968;28;20052;-71
2022/06/24 06:06:36;;;;;;;13.70;2.85;;;;;;;22.86;68.67;100274.50;5056096;28;20045;-72
2022/06/24 06:09:03;;;;;;;12.57;3.53;;;;;;;23.28;69.45;100272.34;5055171;28;20044;-72
2022/06/24 06:11:30;;;;;;;9.85;3.10;;;;;;;23.10;70.73;100277.22;5074370;28;20496;-72
2022/06/24 06:13:58;;;;;;;10.10;3.35;;;;;;;23.31;72.60;100273.53;5074294;28;20040;-71
2022/06/24 06:16:26;;;;;;;16.35;3.65;;;;;;;23.33;74.35;100285.16;5073255;28;20055;-71
2022/06/24 06:18:54;;;;;;;12.07;3.55;;;;;;;23.53;72.37;100280.63;5073594;28;20051;-71
2022/06/24 06:21:22;;;;;;;9.95;3.17;;;;;;;23.66;72.08;100286.59;5069075;28;20053;-70
2022/06/24 06:23:49;;;;;;;13.68;3.35;;;;;;;23.74;73.19;100288.13;5073845;28;20041;-71
2022/06/24 06:26:16;;;;;;;11.18;3.00;;;;;;;23.39;72.25;100289.16;5059122;28;20060;-73
2022/06/24 06:28:43;;;;;;;7.20;2.78;;;;;;;23.23;68.54;100289.59;5080431;28;20487;-70
2022/06/24 06:31:11;;;;;;;12.15;2.80;;;;;;;23.37;68.27;100297.19;5055792;28;20044;-70
2022/06/24 06:33:40;;;;;;;9.70;2.83;;;;;;;23.53;71.47;100288.25;5073099;28;20511;-69
2022/06/24 06:36:10;;;;;;;5.53;2.92;;;;;;;23.20;68.43;100289.63;5067824;28;20048;-72
2022/06/24 06:38:38;;;;;;;9.20;5.00;;;;;;;23.15;70.61;100296.44;5056052;28;20067;-70
2022/06/24 06:41:14;;;;;;;10.88;3.80;;;;;;;23.19;66.69;100290.81;5054668;28;20435;-71
2022/06/24 06:43:41;;;;;;;8.73;2.97;;;;;;;22.98;65.76;100294.53;5071589;28;20040;-73
2022/06/24 06:46:12;;;;;;;7.38;2.22;;;;;;;23.06;65.59;100295.31;5055781;28;20055;-73
2022/06/24 06:48:40;;;;;;;7.72;2.75;;;;;;;23.03;66.28;100294.09;5083068;28;20048;-71
2022/06/24 06:51:07;;;;;;;9.27;2.50;;;;;;;23.07;65.47;100297.72;5029124;28;20086;-73
2022/06/24 06:53:35;;;;;;;7.13;2.58;;;;;;;23.00;66.47;100299.72;5031928;28;20041;-72
2022/06/24 06:56:02;;;;;;;7.53;2.40;;;;;;;22.98;65.37;100302.16;5028611;28;20053;-73
2022/06/24 06:58:30;;;;;;;7.95;2.65;;;;;;;23.11;65.39;100308.94;5032604;28;20050;-72
2022/06/24 07:00:57;;;;;;;10.00;2.75;;;;;;;23.17;64.82;100304.50;5032223;28;20064;-72
2022/06/24 07:03:25;;;;;;;9.10;2.67;;;;;;;23.38;63.59;100307.22;5034212;28;20053;-71
2022/06/24 07:05:53;;;;;;;7.65;2.72;;;;;;;23.06;64.42;100304.53;4996023;28;20054;-71
2022/06/24 07:08:20;;;;;;;8.43;2.60;;;;;;;23.16;64.58;100306.50;5031299;28;20058;-71
2022/06/24 07:10:47;;;;;;;6.90;2.35;;;;;;;23.33;64.34;100302.03;5031539;28;20060;-72
2022/06/24 07:13:15;;;;;;;8.18;2.20;;;;;;;23.23;63.72;100300.03;5044874;28;20049;-70
2022/06/24 07:15:42;;;;;;;7.68;3.22;;;;;;;23.40;64.18;100291.56;5033201;28;20057;-71
2022/06/24 07:18:09;;;;;;;12.32;3.20;;;;;;;23.39;63.89;100287.16;5034723;28;20413;-73
2022/06/24 07:20:37;;;;;;;16.25;2.80;;;;;;;23.33;63.86;100287.97;5029725;28;20052;-71
2022/06/24 07:23:04;;;;;;;11.93;2.70;;;;;;;23.57;63.09;100281.44;5031785;28;20045;-71
2022/06/24 07:25:32;;;;;;;7.53;2.22;;;;;;;23.26;62.89;100290.78;5051857;28;20053;-71
2022/06/24 07:28:00;;;;;;;7.53;2.65;;;;;;;23.54;62.72;100287.84;5030834;28;20481;-72
2022/06/24 07:30:28;;;;;;;13.02;2.83;;;;;;;23.61;63.04;100290.63;5013608;28;20053;-73
2022/06/24 07:32:56;;;;;;;6.90;3.42;;;;;;;23.74;62.58;100283.31;5054871;28;20057;-73
2022/06/24 07:35:24;;;;;;;9.65;3.20;;;;;;;24.11;61.10;100289.06;5029619;28;20080;-74
2022/06/24 07:38:11;;;;;;;11.20;2.47;;;;;;;23.74;61.09;100286.13;5030780;28;20176;-73
2022/06/24 07:40:38;;;;;;;13.38;3.55;;;;;;;23.85;61.17;100278.38;5047079;28;20053;-73
2022/06/24 07:43:06;;;;;;;7.85;2.30;;;;;;;23.92;60.40;100283.97;4995821;28;20057;-73
2022/06/24 07:45:34;;;;;;;10.80;2.30;;;;;;;23.82;60.41;100282.03;5031425;28;20053;-73
2022/06/24 07:48:01;;;;;;;8.35;2.67;;;;;;;24.11;60.25;100279.84;5033654;28;20152;-72
2022/06/24 07:50:29;;;;;;;8.20;2.88;;;;;;;24.19;59.65;100278.53;5037668;28;20650;-72
2022/06/24 07:52:56;;;;;;;8.90;2.10;;;;;;;24.28;59.50;100282.50;5067667;28;20053;-72
2022/06/24 07:58:10;;;;;;;6.47;2.45;;;;;;;24.62;58.32;100270.50;5057368;28;20048;-73
2022/06/24 08:00:38;;;;;;;15.30;3.33;;;;;;;25.00;57.70;100266.44;5070698;28;20056;-72
2022/06/24 08:03:05;;;;;;;15.98;3.00;;;;;;;24.90;57.31;100264.53;5070488;28;20041;-73
2022/06/24 08:05:33;;;;;;;12.15;2.75;;;;;;;24.79;57.22;100275.97;5071876;28;20486;-73
2022/06/24 08:08:00;;;;;;;6.75;2.30;;;;;;;24.75;57.58;100278.00;5071559;28;20053;-74
2022/06/24 08:10:28;;;;;;;10.05;2.50;;;;;;;24.47;57.80;100278.28;5053535;28;20048;-73
2022/06/24 08:12:56;;;;;;;12.85;6.50;;;;;;;24.51;58.12;100274.19;5085992;28;20056;-73
2022/06/24 08:15:23;;;;;;;11.80;4.40;;;;;;;24.87;57.35;100280.28;5073826;28;20040;-74
2022/06/24 08:17:51;;;;;;;12.93;2.60;;;;;;;24.71;57.21;100285.69;5087449;28;20048;-73
2022/06/24 08:20:18;;;;;;;10.50;3.03;;;;;;;24.64;57.44;100282.91;5033419;28;20158;-74
2022/06/24 08:22:46;;;;;;;9.45;2.50;;;;;;;24.51;57.34;100287.50;5075494;28;20048;-73
2022/06/24 08:25:13;;;;;;;7.50;2.30;;;;;;;24.29;57.19;100286.09;5055487;28;20508;-73
2022/06/24 08:27:50;;;;;;;6.40;2.50;;;;;;;24.51;55.84;100282.66;5074303;28;20059;-72
2022/06/24 08:30:18;;;;;;;8.45;2.30;;;;;;;24.30;55.46;100280.03;5071341;28;20630;-75
2022/06/24 08:32:46;;;;;;;13.02;2.15;;;;;;;24.36;55.74;100272.75;5057284;28;20506;-72
2022/06/24 08:35:13;;;;;;;8.57;2.33;;;;;;;24.46;55.40;100271.06;5072216;28;20044;-72
2022/06/24 08:37:54;;;;;;;9.30;2.30;;;;;;;24.57;55.28;100280.19;5071961;28;20057;-73
2022/06/24 08:40:23;;;;;;;11.70;2.50;;;;;;;24.46;55.78;100282.31;5057491;28;20326;-73
2022/06/24 08:42:58;;;;;;;13.70;2.42;;;;;;;24.51;55.64;100279.81;5040228;28;20044;-73
2022/06/24 08:45:26;;;;;;;11.30;2.17;;;;;;;24.56;54.89;100269.34;5078532;28;20060;-73
2022/06/24 08:47:54;;;;;;;8.98;2.42;;;;;;;24.59;54.50;100274.13;5040741;28;20067;-74
2022/06/24 08:50:23;;;;;;;7.25;1.80;;;;;;;24.45;53.37;100275.88;5068892;28;20571;-73
2022/06/24 08:52:52;;;;;;;8.02;1.85;;;;;;;24.59;53.90;100271.31;5071557;28;20053;-72
2022/06/24 08:55:23;;;;;;;6.05;1.92;;;;;;;24.48;52.92;100268.59;5075219;28;20071;-73
2022/06/24 08:57:51;;;;;;;8.18;1.80;;;;;;;24.41;53.96;100261.03;5079996;28;20045;-74
2022/06/24 09:00:19;;;;;;;6.90;2.63;;;;;;;24.45;54.23;100256.16;5071342;28;20064;-75
2022/06/24 09:02:48;;;;;;;6.18;2.20;;;;;;;24.62;53.29;100257.19;5081635;28;20060;-74
2022/06/24 09:05:16;;;;;;;11.60;5.63;;;;;;;24.73;53.99;100241.00;5073650;28;20056;-74
2022/06/24 09:07:45;;;;;;;8.75;1.70;;;;;;;24.91;53.33;100249.25;5047083;28;20060;-74
2022/06/24 09:10:13;;;;;;;4.82;1.65;;;;;;;25.00;52.79;100244.69;5074854;28;20551;-74
2022/06/24 09:12:43;;;;;;;10.38;1.88;;;;;;;24.99;52.17;100240.28;5035142;28;20056;-74
2022/06/24 09:15:12;;;;;;;;;;;;;;;24.77;52.63;100229.69;5055549;28;20053;-74
2022/06/24 09:17:40;;;;;;;10.85;1.75;;;;;;;24.84;52.73;100233.22;5074553;28;19924;-74
2022/06/24 09:20:12;;;;;;;7.47;1.90;;;;;;;25.24;51.88;100232.28;5071611;28;20052;-74
2022/06/24 09:23:02;;;;;;;;;;;;;;;24.70;52.07;100227.75;5073858;28;20048;-75
2022/06/24 09:25:54;;;;;;;4.70;1.20;;;;;;;24.24;53.25;100233.88;5038873;28;20474;-75
2022/06/24 09:28:22;;;;;;;5.45;1.50;;;;;;;24.39;53.55;100223.25;5078432;28;20067;-75
2022/06/24 09:30:51;;;;;;;7.78;1.77;;;;;;;24.67;52.96;100216.50;5075609;28;20373;-75
2022/06/24 09:33:19;;;;;;;9.77;1.77;;;;;;;24.88;51.62;100216.28;5022025;28;20064;-74
2022/06/24 09:36:09;;;;;;;5.18;1.40;;;;;;;25.11;51.25;100207.91;5084356;28;20041;-74
2022/06/24 09:38:54;;;;;;;8.05;1.60;;;;;;;24.85;51.81;100208.66;5074089;28;20049;-76
2022/06/24 09:41:23;;;;;;;7.68;1.98;;;;;;;25.04;51.71;100202.34;5062165;28;20056;-74
2022/06/24 09:43:52;;;;;;;5.03;1.65;;;;;;;24.82;51.58;100198.22;5068816;28;20052;-74
2022/06/24 09:46:22;;;;;;;6.43;1.42;;;;;;;24.52;51.76;100204.59;5073801;28;20047;-73
2022/06/24 09:48:51;;;;;;;4.22;1.33;;;;;;;24.57;52.20;100203.34;5062797;28;20480;-75
2022/06/24 09:51:19;;;;;;;5.03;1.13;;;;;;;24.62;51.55;100205.72;5044141;28;20076;-74
2022/06/24 09:53:47;;;;;;;3.45;1.10;;;;;;;24.22;51.67;100199.69;5073779;28;20561;-73
2022/06/24 09:56:14;;;;;;;4.50;1.35;;;;;;;24.21;51.35;100198.13;5077627;28;20165;-74
2022/06/24 09:58:43;;;;;;;4.63;1.52;;;;;;;24.21;51.99;100202.94;5058840;28;20052;-73
2022/06/24 10:01:10;;;;;;;6.32;1.40;;;;;;;24.51;51.16;100197.38;5055879;28;20475;-74
2022/06/24 10:03:38;;;;;;;5.60;1.35;;;;;;;24.58;50.29;100194.50;5071453;28;20045;-74
2022/06/24 10:06:10;;;;;;;7.80;1.60;;;;;;;24.38;50.48;100202.75;5050480;28;20044;-75
2022/06/24 10:08:40;;;;;;;4.35;1.10;;;;;;;24.23;50.59;100198.47;5036768;28;20052;-76
2022/06/24 10:11:27;;;;;;;;;;;;;;;23.99;51.21;100205.16;5073108;28;20539;-77
2022/06/24 10:13:55;;;;;;;2.83;0.98;;;;;;;24.03;51.12;100208.75;5056265;28;19924;-71
2022/06/24 10:16:23;;;;;;;7.85;1.50;;;;;;;24.24;51.10;100204.91;5056596;28;20044;-67
2022/06/24 10:18:52;;;;;;;11.60;5.20;;;;;;;24.68;50.08;100204.00;5053003;28;20055;-73
2022/06/24 10:21:21;;;;;;;10.15;5.68;;;;;;;24.89;50.00;100207.41;5087685;28;20052;-73
2022/06/24 10:23:48;;;;;;;13.95;4.00;;;;;;;24.93;49.08;100199.69;5055926;28;20059;-76
2022/06/24 10:26:28;;;;;;;9.45;3.60;;;;;;;25.08;48.90;100209.56;5074728;28;20040;-75
2022/06/24 10:28:59;;;;;;;9.73;4.30;;;;;;;25.01;49.60;100206.03;5071066;28;20546;-74
2022/06/24 10:31:45;;;;;;;6.13;1.58;;;;;;;24.84;49.22;100207.06;5070524;28;20045;-78
2022/06/24 10:34:34;;;;;;;6.82;2.78;;;;;;;24.95;48.69;100202.88;5073665;28;20036;-75
2022/06/24 10:37:10;;;;;;;7.07;3.88;;;;;;;25.14;48.46;100193.75;5058116;28;20060;-75
2022/06/24 10:39:49;;;;;;;3.53;1.48;;;;;;;25.06;49.46;100183.00;5073096;28;20056;-75
2022/06/24 10:42:20;;;;;;;4.40;1.23;;;;;;;24.98;48.67;100181.53;5056602;28;20056;-74
2022/06/24 10:44:52;;;;;;;5.47;1.52;;;;;;;25.25;48.17;100191.59;5076077;28;20044;-75
2022/06/24 10:47:27;;;;;;;7.05;1.77;;;;;;;25.45;47.62;100180.44;5063861;28;20053;-74
2022/06/24 10:49:55;;;;;;;5.95;2.60;;;;;;;25.64;47.72;100182.56;5068259;28;20052;-73
2022/06/24 10:52:38;;;;;;;6.82;3.22;;;;;;;25.40;47.98;100181.72;5039136;28;20053;-73
2022/06/24 10:55:20;;;;;;;6.15;3.08;;;;;;;25.54;47.46;100183.53;5072128;28;20056;-73
2022/06/24 10:57:52;;;;;;;5.20;2.10;;;;;;;25.60;46.65;100184.63;5056058;28;20049;-74
2022/06/24 11:00:23;;;;;;;7.78;2.17;;;;;;;25.65;46.28;100181.31;5072425;28;20431;-73
2022/06/24 11:02:56;;;;;;;5.28;2.42;;;;;;;25.80;45.40;100174.22;5052750;28;20048;-73
2022/06/24 11:05:26;;;;;;;10.45;6.75;;;;;;;25.81;44.95;100164.53;5060186;28;20053;-73
2022/06/24 11:07:53;;;;;;;7.88;4.50;;;;;;;25.79;44.94;100169.78;5035571;28;20055;-73
2022/06/24 11:10:22;;;;;;;9.15;3.00;;;;;;;26.28;44.16;100176.59;5072346;28;20049;-73
2022/06/24 11:12:52;;;;;;;6.37;2.57;;;;;;;26.13;43.97;100178.09;5056084;28;20052;-74
2022/06/24 11:15:34;;;;;;;3.83;1.42;;;;;;;26.17;44.23;100179.59;5056058;28;20478;-72
2022/06/24 11:18:09;;;;;;;3.78;1.60;;;;;;;26.14;44.86;100176.84;5087288;28;20049;-72
2022/06/24 11:20:40;;;;;;;4.22;1.85;;;;;;;25.94;45.33;100178.81;5073155;28;20122;-73
2022/06/24 11:23:12;;;;;;;4.20;1.48;;;;;;;26.37;44.67;100180.44;5054780;28;20056;-74
2022/06/24 11:25:45;;;;;;;2.92;1.48;;;;;;;26.09;44.91;100171.69;5074196;28;20044;-75
2022/06/24 11:28:21;;;;;;;5.18;2.30;;;;;;;26.09;45.99;100174.53;5054637;28;20040;-73
2022/06/24 11:30:50;;;;;;;7.15;2.17;;;;;;;26.24;45.33;100168.19;5064146;28;20048;-74
2022/06/24 11:33:19;;;;;;;7.35;3.35;;;;;;;26.00;45.87;100172.25;5067003;28;20044;-73
2022/06/24 11:35:48;;;;;;;5.43;3.63;;;;;;;26.10;46.18;100171.28;5047254;28;20119;-73
2022/06/24 11:38:22;;;;;;;6.95;2.53;;;;;;;26.23;45.10;100177.88;5067823;28;20064;-75
2022/06/24 11:40:50;;;;;;;6.85;2.90;;;;;;;26.27;45.49;100178.63;5037000;28;20060;-73
2022/06/24 11:43:18;;;;;;;3.72;1.88;;;;;;;25.85;46.15;100182.19;5087111;28;20052;-73
2022/06/24 11:45:47;;;;;;;6.15;2.47;;;;;;;25.37;50.45;100190.22;5072254;28;20055;-73